Airfield :
LOGIN :

Register | Disclaimer

   EN    FR    IT 

 










Legend :    VFR   Marginal VFR   IFR   Intensive IFR   Very Intensive IFR
Visi :
Ceiling :
>= 8 km
>= 3000ft
5 to 8 km
1000 to 3000 ft
1500m to 5 km
500 to 1000 ft
800 to 1500m
200 to 500 ft
< 800m
< 200 ft
Symbols :   Thunderstorms  Fog  Heavy snow  Heavy precipitations  Wind > 20 kt
SIGMETs :     Misc.  Thunderstorms  Icing  Turbulence  Mountain Waves  Volcanic Ashes






- Airport Elevation : 433 ft
- IATA code : CCF


LFMK - Carcassonne

CURRENT METAR :
  • 270630Z AUTO 25004KT 230V290 4400 -DZ BR OVC005 07/07 Q1019 TEMPO RA BKN002 BKN008 BKN014 FEW020TCU

EXPIRED METARs :
  • 270600Z AUTO VRB02KT 3000 -DZ BR OVC007 06/06 Q1019 TEMPO RA BKN002 BKN008 BKN014 FEW020TCU
  • 270530Z AUTO VRB01KT 4000 -RADZ BR BKN006 OVC010 06/05 Q1019 TEMPO RA BKN002 BKN008 BKN014 FEW020TCU
  • 270500Z AUTO 30003KT 3600 -DZ BR OVC012/// ///TCU 06/05 Q1019 TEMPO RA BKN002 BKN008 BKN014 FEW020TCU
  • 270430Z AUTO VRB03KT 4500 -DZ BR OVC015 06/05 Q1019 TEMPO RA BKN002 BKN008 BKN014 FEW020TCU
  • 270400Z AUTO 28003KT 3500 -DZ BR BKN002/// BKN006/// OVC014/// ///TCU 05/05 Q1019 TEMPO RA

TAF AMD TAF LFMK
Valid from the 27 at 03:00 until the 28 at 03:00 UTC


270315Z 2703/2803 30010KT 9999 BKN040 BKN050
TEMPO 2703/2712 3000 RA BR BKN002 BKN008 BKN014 FEW020TCU



MET'MAP, your aeronautical weather chart ! - Copyright ORBIFLY December 2007 - Disclaimer

ORBIFLY MET'MAP TEAM :

Programming & Development : Alexandra Zaïnal
Concept & original design : Baudouin d'Aumeries
Assistance for programming : Marc-Olivier Méhu
Technical & hardware support : Manuel Goepfert

Contact : metmap@orbifly.com




SOURCES & CREDITS :

   NOAA